Reedsport, Oregon
Current Conditions -  °F | °C
As of 5:55 AM on Thursday 30 Oct 2014 (Local Time) from KOTH Reporting Station
Overcast Overcast  
Wind Chill: 59°   Ceiling: 3300
Heat Index: 59°   Visibility: 10mi
Dew Point: 59°   Wind: 3mph
Humidity: 100%   Direction: 130°SE
Pressure: 29.88"   Gusts: NA
Location:  43.7°N, 124.1°W
Report Text: KOTH 301255Z 13003KT 10SM OVC033 15/15 A2988 RMK AO1
Loading
Personal Weather Stations






























Interactive Weather Map
Tropical Storm Tracking
New forecast layout! Learn more

10-Day Weather Forecast

Advertisements
Track Severe Weather on mobile